Time;durP1;ratioP1;P1;durP2;ratioP2;P2;SDS_P1;SDS_P2;PMS_P1;PMS_P2;Temp;Humidity;BMP_temperature;BMP_pressure;BME280_temperature;BME280_humidity;BME280_pressure;Samples;Min_cycle;Max_cycle;Signal;HPM_P1;HPM_P2
2024/03/04 00:01:04;;;;;;;51.22;30.15;;;;;;;;;;5061661;28;20025;-84
2024/03/04 00:03:30;;;;;;;54.50;29.13;;;;;;;;;;5062305;28;20083;-84
2024/03/04 00:05:56;;;;;;;51.97;27.70;;;;;;;;;;5072086;28;20509;-83
2024/03/04 00:08:22;;;;;;;43.40;27.02;;;;;;;;;;5065499;28;20364;-78
2024/03/04 00:10:48;;;;;;;49.88;29.80;;;;;;;;;;5061787;28;20070;-79
2024/03/04 00:13:15;;;;;;;48.30;28.55;;;;;;;;;;5057964;28;20108;-79
2024/03/04 00:15:42;;;;;;;52.33;29.73;;;;;;;;;;5061762;28;20099;-78
2024/03/04 00:18:08;;;;;;;44.83;27.75;;;;;;;;;;5058169;28;20017;-78
2024/03/04 00:20:34;;;;;;;48.95;28.15;;;;;;;;;;5062041;28;20070;-78
2024/03/04 00:23:00;;;;;;;48.10;29.38;;;;;;;;;;5058230;28;20036;-82
2024/03/04 00:25:26;;;;;;;52.92;31.23;;;;;;;;;;5062739;28;20541;-77
2024/03/04 00:27:52;;;;;;;52.13;29.55;;;;;;;;;;5056801;28;20048;-82
2024/03/04 00:30:18;;;;;;;49.10;28.40;;;;;;;;;;5062912;28;20494;-82
2024/03/04 00:32:45;;;;;;;47.65;29.58;;;;;;;;;;5059482;28;20027;-77
2024/03/04 00:35:13;;;;;;;47.65;29.08;;;;;;;;;;5065692;28;20024;-77
2024/03/04 00:37:41;;;;;;;52.30;28.38;;;;;;;;;;5072187;28;20016;-81
2024/03/04 00:40:12;;;;;;;47.53;28.55;;;;;;;;;;5056709;28;20036;-81
2024/03/04 00:42:38;;;;;;;51.85;29.63;;;;;;;;;;5065123;28;20585;-77
2024/03/04 00:45:05;;;;;;;48.95;28.27;;;;;;;;;;5057308;28;20036;-81
2024/03/04 00:47:34;;;;;;;50.35;29.02;;;;;;;;;;5051714;28;20027;-81
2024/03/04 00:50:01;;;;;;;58.50;29.95;;;;;;;;;;5051416;28;20013;-77
2024/03/04 00:52:27;;;;;;;50.47;29.25;;;;;;;;;;5059825;28;20024;-77
2024/03/04 00:54:53;;;;;;;49.40;28.92;;;;;;;;;;5058771;28;20588;-78
2024/03/04 00:57:21;;;;;;;50.78;28.83;;;;;;;;;;5071127;28;20028;-82
2024/03/04 00:59:47;;;;;;;48.95;29.25;;;;;;;;;;5072176;28;20021;-78
2024/03/04 01:02:13;;;;;;;49.25;28.35;;;;;;;;;;5057489;28;20535;-81
2024/03/04 01:04:39;;;;;;;53.50;29.00;;;;;;;;;;5067760;28;20024;-82
2024/03/04 01:07:06;;;;;;;49.03;29.30;;;;;;;;;;5060766;28;20055;-82
2024/03/04 01:09:32;;;;;;;48.63;28.98;;;;;;;;;;5064299;28;20027;-83
2024/03/04 01:11:58;;;;;;;53.05;29.48;;;;;;;;;;5067266;28;20020;-83
2024/03/04 01:14:24;;;;;;;49.95;29.42;;;;;;;;;;5063067;28;20044;-84
2024/03/04 01:16:52;;;;;;;50.05;28.67;;;;;;;;;;5060441;28;20479;-84
2024/03/04 01:19:19;;;;;;;55.53;30.80;;;;;;;;;;5060676;28;20115;-83
2024/03/04 01:21:47;;;;;;;47.20;29.13;;;;;;;;;;5057562;28;20024;-79
2024/03/04 01:24:15;;;;;;;48.95;28.77;;;;;;;;;;5060709;28;20013;-77
2024/03/04 01:26:41;;;;;;;50.90;29.65;;;;;;;;;;5051748;28;20091;-78
2024/03/04 01:29:10;;;;;;;50.92;29.00;;;;;;;;;;5056522;28;20092;-77
2024/03/04 01:31:37;;;;;;;54.13;30.00;;;;;;;;;;5062140;28;20029;-82
2024/03/04 01:34:04;;;;;;;53.28;31.55;;;;;;;;;;5056808;28;20029;-79
2024/03/04 01:36:30;;;;;;;52.92;30.77;;;;;;;;;;5057073;28;20116;-79
2024/03/04 01:38:56;;;;;;;57.45;31.98;;;;;;;;;;5059703;28;20021;-79
2024/03/04 01:41:22;;;;;;;56.00;32.20;;;;;;;;;;5052561;28;20029;-79
2024/03/04 01:43:49;;;;;;;53.33;30.33;;;;;;;;;;5052077;28;20053;-79
2024/03/04 01:46:15;;;;;;;57.88;31.92;;;;;;;;;;5050124;28;20045;-79
2024/03/04 01:48:41;;;;;;;53.38;31.33;;;;;;;;;;5050510;28;20025;-79
2024/03/04 01:51:08;;;;;;;53.70;31.65;;;;;;;;;;5052425;28;20025;-78
2024/03/04 01:53:35;;;;;;;55.70;32.03;;;;;;;;;;5050779;28;20099;-78
2024/03/04 01:56:03;;;;;;;54.97;31.38;;;;;;;;;;5064106;28;20019;-79
2024/03/04 01:58:31;;;;;;;50.03;30.58;;;;;;;;;;5053006;28;20025;-78
2024/03/04 02:00:59;;;;;;;52.90;30.42;;;;;;;;;;5061913;28;20024;-79
2024/03/04 02:03:25;;;;;;;56.60;31.48;;;;;;;;;;5051918;28;20463;-78
2024/03/04 02:05:51;;;;;;;56.03;32.85;;;;;;;;;;5064617;28;20029;-78
2024/03/04 02:08:19;;;;;;;56.20;30.98;;;;;;;;;;5059774;28;20037;-78
2024/03/04 02:10:47;;;;;;;59.78;34.20;;;;;;;;;;5048873;28;20057;-77
2024/03/04 02:13:13;;;;;;;51.45;30.80;;;;;;;;;;5050549;28;20079;-77
2024/03/04 02:15:39;;;;;;;61.00;32.25;;;;;;;;;;5050117;28;20055;-76
2024/03/04 02:18:06;;;;;;;50.20;31.83;;;;;;;;;;5051745;28;20462;-76
2024/03/04 02:20:33;;;;;;;52.33;32.13;;;;;;;;;;5053477;28;20474;-77
2024/03/04 02:22:59;;;;;;;57.83;33.00;;;;;;;;;;5055955;28;20106;-77
2024/03/04 02:25:33;;;;;;;58.00;33.53;;;;;;;;;;5055949;28;20501;-77
2024/03/04 02:27:59;;;;;;;61.17;33.15;;;;;;;;;;5049861;28;20445;-76
2024/03/04 02:30:25;;;;;;;64.57;35.08;;;;;;;;;;5054696;28;20029;-81
2024/03/04 02:32:51;;;;;;;55.85;32.63;;;;;;;;;;5067063;28;20025;-81
2024/03/04 02:35:17;;;;;;;57.85;33.00;;;;;;;;;;5059781;28;20025;-81
2024/03/04 02:37:44;;;;;;;58.40;33.50;;;;;;;;;;5058603;28;20360;-82
2024/03/04 02:40:11;;;;;;;61.88;32.83;;;;;;;;;;5060238;28;20390;-78
2024/03/04 02:42:38;;;;;;;60.50;33.03;;;;;;;;;;5056637;28;20132;-78
2024/03/04 02:45:05;;;;;;;59.38;31.85;;;;;;;;;;5053586;28;20033;-82
2024/03/04 02:47:31;;;;;;;56.60;29.55;;;;;;;;;;5053785;28;20120;-78
2024/03/04 02:49:57;;;;;;;59.95;31.00;;;;;;;;;;5057010;28;20024;-83
2024/03/04 02:52:23;;;;;;;55.60;31.90;;;;;;;;;;5070300;28;20033;-79
2024/03/04 02:54:49;;;;;;;53.17;30.23;;;;;;;;;;5060358;28;20052;-78
2024/03/04 02:57:16;;;;;;;54.08;33.22;;;;;;;;;;5072589;28;20465;-79
2024/03/04 02:59:42;;;;;;;55.25;31.33;;;;;;;;;;5060139;28;20025;-80
2024/03/04 03:02:08;;;;;;;57.90;31.70;;;;;;;;;;5053469;28;20013;-83
2024/03/04 03:04:34;;;;;;;60.22;33.20;;;;;;;;;;5057399;28;20048;-82
2024/03/04 03:07:01;;;;;;;59.53;33.83;;;;;;;;;;5065829;28;20482;-83
2024/03/04 03:09:27;;;;;;;61.33;32.05;;;;;;;;;;5058430;28;20079;-83
2024/03/04 03:11:55;;;;;;;54.25;31.10;;;;;;;;;;5067575;28;20553;-83
2024/03/04 03:14:21;;;;;;;56.20;32.45;;;;;;;;;;5067237;28;20025;-82
2024/03/04 03:16:47;;;;;;;56.53;32.08;;;;;;;;;;5065278;28;20044;-82
2024/03/04 03:19:23;;;;;;;57.78;32.45;;;;;;;;;;5060018;28;20079;-81
2024/03/04 03:21:49;;;;;;;55.40;31.00;;;;;;;;;;5059031;28;20025;-81
2024/03/04 03:24:15;;;;;;;55.55;32.42;;;;;;;;;;5054835;28;20027;-76
2024/03/04 03:26:41;;;;;;;54.75;32.38;;;;;;;;;;5062930;28;20112;-81
2024/03/04 03:29:09;;;;;;;62.22;33.65;;;;;;;;;;5057392;28;20052;-82
2024/03/04 03:31:35;;;;;;;63.47;34.28;;;;;;;;;;5057078;28;20032;-82
2024/03/04 03:34:01;;;;;;;57.55;33.50;;;;;;;;;;5053670;28;20029;-76
2024/03/04 03:36:27;;;;;;;65.28;35.20;;;;;;;;;;5059830;28;20021;-81
2024/03/04 03:38:53;;;;;;;65.22;33.85;;;;;;;;;;5068311;28;20100;-81
2024/03/04 03:41:19;;;;;;;71.43;37.42;;;;;;;;;;5067001;28;20025;-80
2024/03/04 03:43:45;;;;;;;61.38;33.63;;;;;;;;;;5054404;28;20040;-75
2024/03/04 03:46:11;;;;;;;60.65;34.83;;;;;;;;;;5053549;28;20040;-76
2024/03/04 03:48:37;;;;;;;67.70;36.50;;;;;;;;;;5066931;28;20100;-81
2024/03/04 03:51:03;;;;;;;67.93;36.78;;;;;;;;;;5065727;28;20028;-81
2024/03/04 03:53:29;;;;;;;70.45;36.95;;;;;;;;;;5067000;28;20166;-77
2024/03/04 03:55:56;;;;;;;71.75;36.60;;;;;;;;;;5067352;28;20028;-81
2024/03/04 03:58:22;;;;;;;64.40;32.83;;;;;;;;;;5063419;28;20033;-80
2024/03/04 04:00:48;;;;;;;63.20;36.05;;;;;;;;;;5061452;28;20162;-76
2024/03/04 04:03:14;;;;;;;71.13;39.25;;;;;;;;;;5061456;28;20119;-82
2024/03/04 04:05:40;;;;;;;65.30;36.95;;;;;;;;;;5052032;28;20029;-77
2024/03/04 04:08:07;;;;;;;70.68;35.65;;;;;;;;;;5068931;28;20394;-77
2024/03/04 04:10:33;;;;;;;71.72;39.13;;;;;;;;;;5067636;28;20580;-81
2024/03/04 04:12:59;;;;;;;68.75;37.88;;;;;;;;;;5052831;28;20494;-77
2024/03/04 04:15:25;;;;;;;65.95;36.67;;;;;;;;;;5055020;28;20494;-82
2024/03/04 04:17:51;;;;;;;72.07;38.47;;;;;;;;;;5063821;28;20017;-81
2024/03/04 04:20:17;;;;;;;67.78;37.17;;;;;;;;;;5053240;28;20467;-76
2024/03/04 04:22:43;;;;;;;77.07;38.70;;;;;;;;;;5056261;28;20017;-77
2024/03/04 04:25:11;;;;;;;76.28;38.53;;;;;;;;;;5062484;28;20437;-76
2024/03/04 04:27:37;;;;;;;64.75;37.80;;;;;;;;;;5063149;28;20023;-77
2024/03/04 04:30:03;;;;;;;71.40;38.35;;;;;;;;;;5061786;28;20418;-81
2024/03/04 04:32:29;;;;;;;68.03;38.72;;;;;;;;;;5060896;28;20077;-77
2024/03/04 04:34:55;;;;;;;64.05;37.28;;;;;;;;;;5056650;28;20060;-81
2024/03/04 04:37:21;;;;;;;77.65;39.45;;;;;;;;;;5053125;28;20393;-82
2024/03/04 04:39:47;;;;;;;79.10;41.70;;;;;;;;;;5054381;28;20017;-82
2024/03/04 04:42:14;;;;;;;78.65;41.83;;;;;;;;;;5052051;28;20029;-82
2024/03/04 04:44:40;;;;;;;73.28;39.92;;;;;;;;;;5052636;28;20059;-81
2024/03/04 04:47:06;;;;;;;67.78;37.95;;;;;;;;;;5055584;28;20029;-83
2024/03/04 04:49:32;;;;;;;72.53;40.03;;;;;;;;;;5058872;28;20021;-83
2024/03/04 04:51:58;;;;;;;73.65;39.95;;;;;;;;;;5056306;28;20017;-78
2024/03/04 04:54:24;;;;;;;71.18;36.55;;;;;;;;;;5058262;28;20033;-81
2024/03/04 04:56:51;;;;;;;73.65;40.53;;;;;;;;;;5052873;28;20051;-81
2024/03/04 04:59:17;;;;;;;69.38;39.30;;;;;;;;;;5057350;28;20036;-77
2024/03/04 05:01:43;;;;;;;72.57;39.95;;;;;;;;;;5047793;28;20091;-82
2024/03/04 05:04:09;;;;;;;74.45;40.90;;;;;;;;;;5060454;28;20426;-81
2024/03/04 05:06:35;;;;;;;81.72;40.25;;;;;;;;;;5064879;28;20041;-83
2024/03/04 05:09:02;;;;;;;71.93;39.47;;;;;;;;;;5061275;28;20395;-77
2024/03/04 05:11:29;;;;;;;71.78;41.13;;;;;;;;;;5059019;28;20060;-76
2024/03/04 05:13:55;;;;;;;73.40;42.50;;;;;;;;;;5050331;28;20044;-76
2024/03/04 05:16:21;;;;;;;76.53;40.72;;;;;;;;;;5060760;28;20081;-82
2024/03/04 05:18:48;;;;;;;72.95;38.13;;;;;;;;;;5058423;28;20020;-76
2024/03/04 05:21:14;;;;;;;75.53;42.00;;;;;;;;;;5061412;28;20390;-76
2024/03/04 05:23:40;;;;;;;73.20;39.78;;;;;;;;;;5053555;28;20092;-82
2024/03/04 05:26:07;;;;;;;79.32;40.08;;;;;;;;;;5054495;28;20036;-82
2024/03/04 05:28:33;;;;;;;77.25;40.33;;;;;;;;;;5050973;28;20021;-76
2024/03/04 05:30:59;;;;;;;76.70;40.88;;;;;;;;;;5057533;28;20033;-77
2024/03/04 05:33:25;;;;;;;79.47;42.25;;;;;;;;;;5068114;28;20024;-82
2024/03/04 05:35:51;;;;;;;79.53;42.58;;;;;;;;;;5054384;28;20125;-82
2024/03/04 05:38:17;;;;;;;82.72;43.20;;;;;;;;;;5068300;28;20024;-76
2024/03/04 05:40:43;;;;;;;78.72;40.88;;;;;;;;;;5062539;28;20036;-76
2024/03/04 05:43:10;;;;;;;86.57;45.10;;;;;;;;;;5062999;28;20140;-77
2024/03/04 05:45:36;;;;;;;81.88;42.50;;;;;;;;;;5044566;28;20033;-75
2024/03/04 05:48:02;;;;;;;93.05;46.72;;;;;;;;;;5053140;28;20378;-82
2024/03/04 05:50:28;;;;;;;81.30;44.10;;;;;;;;;;5051414;28;20413;-82
2024/03/04 05:52:55;;;;;;;75.00;41.13;;;;;;;;;;5058434;28;20081;-77
2024/03/04 05:55:21;;;;;;;66.70;37.83;;;;;;;;;;5067117;28;20510;-82
2024/03/04 05:57:47;;;;;;;80.05;42.30;;;;;;;;;;5071676;28;20032;-81
2024/03/04 06:00:14;;;;;;;75.55;41.40;;;;;;;;;;5064535;28;20026;-77
2024/03/04 06:02:40;;;;;;;73.90;39.40;;;;;;;;;;5051514;28;20039;-82
2024/03/04 06:05:07;;;;;;;72.00;39.75;;;;;;;;;;5060215;28;20032;-83
2024/03/04 06:07:33;;;;;;;72.35;40.83;;;;;;;;;;5056792;28;20383;-78
2024/03/04 06:09:59;;;;;;;73.07;39.08;;;;;;;;;;5066978;28;20025;-83
2024/03/04 06:12:25;;;;;;;66.68;39.15;;;;;;;;;;5057820;28;20024;-77
2024/03/04 06:14:51;;;;;;;75.90;41.05;;;;;;;;;;5064037;28;20040;-79
2024/03/04 06:17:18;;;;;;;69.75;40.13;;;;;;;;;;5055158;28;20036;-80
2024/03/04 06:19:44;;;;;;;76.07;40.42;;;;;;;;;;5051179;28;20036;-79
2024/03/04 06:22:12;;;;;;;71.00;37.95;;;;;;;;;;5054694;28;20025;-79
2024/03/04 06:24:38;;;;;;;70.20;37.45;;;;;;;;;;5052162;28;20525;-82
2024/03/04 06:27:06;;;;;;;66.38;38.90;;;;;;;;;;5051538;28;20041;-80
2024/03/04 06:29:35;;;;;;;68.97;37.05;;;;;;;;;;5071623;28;20048;-78
2024/03/04 06:32:04;;;;;;;74.55;41.88;;;;;;;;;;5058297;28;20044;-78
2024/03/04 06:34:30;;;;;;;80.13;39.22;;;;;;;;;;5053324;28;20474;-79
2024/03/04 06:36:57;;;;;;;70.60;38.50;;;;;;;;;;5050472;28;20061;-78
2024/03/04 06:39:23;;;;;;;71.80;38.67;;;;;;;;;;5058458;28;20025;-81
2024/03/04 06:41:50;;;;;;;69.30;38.63;;;;;;;;;;5060168;28;20378;-83
2024/03/04 06:44:16;;;;;;;68.68;36.97;;;;;;;;;;5053982;28;20045;-83
2024/03/04 06:46:43;;;;;;;67.47;35.28;;;;;;;;;;5064801;28;20375;-84
2024/03/04 06:49:09;;;;;;;68.18;38.17;;;;;;;;;;5059712;28;20121;-77
2024/03/04 06:51:35;;;;;;;70.15;38.65;;;;;;;;;;5059721;28;20036;-77
2024/03/04 06:54:02;;;;;;;63.33;35.88;;;;;;;;;;5063422;28;20039;-77
2024/03/04 06:56:30;;;;;;;61.10;36.42;;;;;;;;;;5057849;28;20032;-78
2024/03/04 06:58:57;;;;;;;62.20;34.63;;;;;;;;;;5068157;28;20040;-83
2024/03/04 07:01:23;;;;;;;69.13;38.13;;;;;;;;;;5060358;28;20033;-77
2024/03/04 07:03:49;;;;;;;59.35;34.97;;;;;;;;;;5053409;28;20100;-79
2024/03/04 07:06:15;;;;;;;62.40;34.92;;;;;;;;;;5044994;28;20032;-79
2024/03/04 07:08:42;;;;;;;59.28;33.13;;;;;;;;;;5052303;28;20027;-79
2024/03/04 07:11:15;;;;;;;58.00;32.85;;;;;;;;;;5053439;28;20021;-79
2024/03/04 07:13:41;;;;;;;54.28;33.30;;;;;;;;;;5051765;28;20063;-79
2024/03/04 07:16:08;;;;;;;55.88;32.67;;;;;;;;;;5062099;28;20042;-84
2024/03/04 07:18:34;;;;;;;54.35;32.60;;;;;;;;;;5043804;28;20033;-79
2024/03/04 07:21:01;;;;;;;58.03;32.50;;;;;;;;;;5054677;28;20070;-84
2024/03/04 07:23:27;;;;;;;57.05;32.53;;;;;;;;;;5057853;28;20021;-79
2024/03/04 07:25:54;;;;;;;52.58;33.38;;;;;;;;;;5056288;28;20029;-83
2024/03/04 07:28:20;;;;;;;54.85;31.13;;;;;;;;;;5059540;28;20025;-84
2024/03/04 07:30:46;;;;;;;55.03;31.92;;;;;;;;;;5067034;28;20025;-79
2024/03/04 07:33:13;;;;;;;59.05;32.13;;;;;;;;;;5059355;28;20049;-83
2024/03/04 07:35:40;;;;;;;56.95;32.15;;;;;;;;;;5056764;28;20017;-84
2024/03/04 07:38:06;;;;;;;57.60;33.35;;;;;;;;;;5058758;28;20581;-83
2024/03/04 07:40:32;;;;;;;53.72;34.92;;;;;;;;;;5061677;28;20426;-79
2024/03/04 07:42:58;;;;;;;62.85;35.95;;;;;;;;;;5059287;28;20078;-79
2024/03/04 07:45:24;;;;;;;55.90;32.35;;;;;;;;;;5052558;28;20422;-83
2024/03/04 07:47:51;;;;;;;64.03;36.42;;;;;;;;;;5057352;28;20074;-83
2024/03/04 07:50:17;;;;;;;59.90;33.50;;;;;;;;;;5057301;28;20025;-79
2024/03/04 07:52:43;;;;;;;55.50;34.78;;;;;;;;;;5066602;28;20481;-79
2024/03/04 07:55:11;;;;;;;61.13;35.90;;;;;;;;;;5058100;28;20501;-79
2024/03/04 07:57:39;;;;;;;56.67;33.22;;;;;;;;;;5065272;28;20074;-79
2024/03/04 08:00:06;;;;;;;56.13;33.70;;;;;;;;;;5057956;28;20017;-79
2024/03/04 08:02:32;;;;;;;54.85;33.45;;;;;;;;;;5061489;28;20109;-84
2024/03/04 08:04:58;;;;;;;55.65;33.85;;;;;;;;;;5060186;28;20024;-79
2024/03/04 08:07:24;;;;;;;56.13;32.70;;;;;;;;;;5051561;28;20083;-84
2024/03/04 08:09:50;;;;;;;54.03;31.33;;;;;;;;;;5053761;28;20068;-84
2024/03/04 08:12:16;;;;;;;56.65;30.85;;;;;;;;;;5053449;28;20062;-83
2024/03/04 08:14:43;;;;;;;50.35;31.88;;;;;;;;;;5061217;28;20029;-79
2024/03/04 08:17:10;;;;;;;54.38;31.58;;;;;;;;;;5056118;28;20074;-79
2024/03/04 08:19:36;;;;;;;46.55;27.25;;;;;;;;;;5052231;28;20032;-84
2024/03/04 08:22:03;;;;;;;49.83;29.35;;;;;;;;;;5052025;28;20021;-83
2024/03/04 08:24:29;;;;;;;46.17;28.33;;;;;;;;;;5057684;28;20090;-79
2024/03/04 08:26:55;;;;;;;41.22;27.33;;;;;;;;;;5056574;28;20033;-79
2024/03/04 08:29:21;;;;;;;46.67;27.95;;;;;;;;;;5071619;28;20032;-79
2024/03/04 08:31:47;;;;;;;42.92;26.92;;;;;;;;;;5065780;28;20071;-79
2024/03/04 08:34:14;;;;;;;47.90;27.42;;;;;;;;;;5053883;28;20017;-84
2024/03/04 08:36:40;;;;;;;44.22;26.48;;;;;;;;;;5051242;28;20043;-84
2024/03/04 08:39:07;;;;;;;44.83;27.58;;;;;;;;;;5056400;28;20094;-84
2024/03/04 08:41:33;;;;;;;43.33;26.30;;;;;;;;;;5060274;28;20108;-84
2024/03/04 08:43:59;;;;;;;44.70;26.58;;;;;;;;;;5062507;28;20049;-79
2024/03/04 08:46:26;;;;;;;45.25;27.38;;;;;;;;;;5054795;28;20509;-84
2024/03/04 08:48:52;;;;;;;43.92;28.10;;;;;;;;;;5054869;28;20028;-84
2024/03/04 08:51:21;;;;;;;40.90;25.80;;;;;;;;;;5054597;28;20045;-83
2024/03/04 08:53:47;;;;;;;42.08;25.33;;;;;;;;;;5061002;28;20406;-79
2024/03/04 08:56:13;;;;;;;41.33;26.00;;;;;;;;;;5059530;28;20021;-84
2024/03/04 08:58:40;;;;;;;42.28;25.92;;;;;;;;;;5058279;28;20371;-84
2024/03/04 09:01:07;;;;;;;41.75;26.30;;;;;;;;;;5057314;28;20032;-79
2024/03/04 09:03:34;;;;;;;45.60;25.05;;;;;;;;;;5063717;28;20019;-79
2024/03/04 09:06:00;;;;;;;44.78;25.50;;;;;;;;;;5053030;28;20044;-83
2024/03/04 09:08:26;;;;;;;44.08;24.85;;;;;;;;;;5063681;28;20462;-84
2024/03/04 09:10:54;;;;;;;40.03;24.80;;;;;;;;;;5057943;28;20060;-84
2024/03/04 09:13:20;;;;;;;42.15;25.38;;;;;;;;;;5063923;28;20456;-84
2024/03/04 09:15:46;;;;;;;43.28;25.83;;;;;;;;;;5057088;28;20060;-79
2024/03/04 09:18:12;;;;;;;37.60;22.75;;;;;;;;;;5056383;28;20482;-79
2024/03/04 09:20:39;;;;;;;39.08;24.08;;;;;;;;;;5052208;28;20424;-84
2024/03/04 09:23:05;;;;;;;37.40;23.25;;;;;;;;;;5050686;28;20543;-84
2024/03/04 09:25:31;;;;;;;36.20;23.08;;;;;;;;;;5049915;28;20044;-84
2024/03/04 09:27:57;;;;;;;36.80;22.95;;;;;;;;;;5063045;28;20028;-79
2024/03/04 09:30:25;;;;;;;33.25;21.30;;;;;;;;;;5073052;28;20108;-80
2024/03/04 09:32:51;;;;;;;36.20;22.60;;;;;;;;;;5062359;28;20127;-79
2024/03/04 09:35:17;;;;;;;37.15;23.40;;;;;;;;;;5056339;28;20530;-79
2024/03/04 09:37:44;;;;;;;33.28;22.05;;;;;;;;;;5054715;28;20032;-79
2024/03/04 09:40:11;;;;;;;35.25;22.50;;;;;;;;;;5069337;28;20023;-83
2024/03/04 09:42:38;;;;;;;44.20;24.95;;;;;;;;;;5067133;28;20087;-79
2024/03/04 09:45:04;;;;;;;42.28;24.55;;;;;;;;;;5074644;28;20025;-79
2024/03/04 09:47:30;;;;;;;43.13;24.48;;;;;;;;;;5074147;28;20028;-84
2024/03/04 09:50:02;;;;;;;40.15;23.88;;;;;;;;;;5066098;28;20027;-82
2024/03/04 09:52:29;;;;;;;39.17;23.35;;;;;;;;;;5061942;28;20111;-80
2024/03/04 09:54:57;;;;;;;36.08;21.85;;;;;;;;;;5075433;28;20013;-83
2024/03/04 09:57:23;;;;;;;34.60;21.55;;;;;;;;;;5073404;28;20017;-84
2024/03/04 09:59:49;;;;;;;39.85;22.42;;;;;;;;;;5074025;28;20025;-83
2024/03/04 10:02:16;;;;;;;35.45;22.20;;;;;;;;;;5073712;28;20032;-79
2024/03/04 10:04:42;;;;;;;38.83;23.00;;;;;;;;;;5075499;28;20017;-83
2024/03/04 10:07:09;;;;;;;42.80;24.95;;;;;;;;;;5063061;28;20037;-84
2024/03/04 10:09:35;;;;;;;38.80;24.45;;;;;;;;;;5065577;28;20036;-83
2024/03/04 10:12:07;;;;;;;40.55;23.80;;;;;;;;;;5059362;28;20028;-80
2024/03/04 10:14:33;;;;;;;36.60;22.35;;;;;;;;;;5054805;28;20112;-80
2024/03/04 10:16:59;;;;;;;36.53;21.60;;;;;;;;;;5054548;28;20029;-83
2024/03/04 10:19:25;;;;;;;34.38;22.17;;;;;;;;;;5052763;28;20409;-83
2024/03/04 10:21:51;;;;;;;36.85;22.40;;;;;;;;;;5052055;28;20017;-79
2024/03/04 10:24:17;;;;;;;33.47;20.38;;;;;;;;;;5053267;28;20508;-79
2024/03/04 10:26:44;;;;;;;36.17;21.67;;;;;;;;;;5055827;28;20029;-80
2024/03/04 10:29:12;;;;;;;37.20;22.92;;;;;;;;;;5054720;28;20390;-83
2024/03/04 10:31:54;;;;;;;36.20;23.35;;;;;;;;;;5055410;28;20500;-83
2024/03/04 10:34:21;;;;;;;42.67;24.03;;;;;;;;;;5056539;28;20482;-79
2024/03/04 10:36:56;;;;;;;37.80;23.02;;;;;;;;;;5056603;28;20021;-83
2024/03/04 10:39:23;;;;;;;39.08;23.13;;;;;;;;;;5050112;28;20017;-79
2024/03/04 10:41:51;;;;;;;37.72;23.10;;;;;;;;;;5056622;28;20025;-83
2024/03/04 10:44:24;;;;;;;38.13;23.65;;;;;;;;;;5056226;28;20140;-83
2024/03/04 10:46:53;;;;;;;41.45;22.95;;;;;;;;;;5056783;28;20032;-79
2024/03/04 10:49:20;;;;;;;38.33;22.23;;;;;;;;;;5058329;28;20025;-83
2024/03/04 10:51:46;;;;;;;35.53;22.20;;;;;;;;;;5054891;28;20032;-83
2024/03/04 10:54:13;;;;;;;40.38;23.67;;;;;;;;;;5056638;28;20025;-79
2024/03/04 10:56:46;;;;;;;41.30;24.15;;;;;;;;;;5056155;28;20025;-79
2024/03/04 10:59:12;;;;;;;47.38;26.10;;;;;;;;;;5055711;28;20382;-80
2024/03/04 11:01:39;;;;;;;41.00;24.75;;;;;;;;;;5054850;28;20032;-79
2024/03/04 11:04:05;;;;;;;37.05;23.42;;;;;;;;;;5056400;28;20564;-79
2024/03/04 11:06:31;;;;;;;38.00;22.95;;;;;;;;;;5054191;28;20033;-79
2024/03/04 11:08:58;;;;;;;51.53;24.88;;;;;;;;;;5053404;28;20032;-79
2024/03/04 11:11:29;;;;;;;38.03;25.10;;;;;;;;;;5055251;28;20032;-83
2024/03/04 11:13:55;;;;;;;43.03;25.17;;;;;;;;;;5065071;28;20076;-83
2024/03/04 11:16:27;;;;;;;36.80;23.13;;;;;;;;;;5061755;28;20494;-83
2024/03/04 11:18:59;;;;;;;36.92;24.52;;;;;;;;;;5060114;28;20395;-83
2024/03/04 11:21:26;;;;;;;44.17;25.38;;;;;;;;;;5072331;28;20550;-83
2024/03/04 11:23:52;;;;;;;41.15;24.33;;;;;;;;;;5052753;28;20017;-83
2024/03/04 11:26:18;;;;;;;42.97;25.60;;;;;;;;;;5062559;28;20115;-79
2024/03/04 11:28:46;;;;;;;44.78;24.70;;;;;;;;;;5055516;28;20033;-78
2024/03/04 11:31:22;;;;;;;45.97;26.15;;;;;;;;;;5053389;28;20036;-79
2024/03/04 11:33:58;;;;;;;44.67;26.05;;;;;;;;;;5058958;28;20032;-79
2024/03/04 11:36:25;;;;;;;48.13;28.00;;;;;;;;;;5055143;28;20517;-77
2024/03/04 11:38:51;;;;;;;38.30;25.40;;;;;;;;;;5055953;28;20036;-79
2024/03/04 11:41:36;;;;;;;48.78;28.92;;;;;;;;;;5052437;28;20045;-79
2024/03/04 11:44:03;;;;;;;43.90;26.65;;;;;;;;;;5050078;28;20057;-78
2024/03/04 11:46:33;;;;;;;49.60;26.80;;;;;;;;;;5052529;28;20415;-79
2024/03/04 11:49:25;;;;;;;46.30;27.48;;;;;;;;;;5052277;28;20109;-79
2024/03/04 11:52:10;;;;;;;50.33;26.63;;;;;;;;;;5042194;28;20037;-79
2024/03/04 11:54:36;;;;;;;43.00;25.92;;;;;;;;;;5043555;28;20026;-78
2024/03/04 11:57:06;;;;;;;45.22;27.52;;;;;;;;;;5061380;28;20050;-79
2024/03/04 11:59:32;;;;;;;49.20;28.42;;;;;;;;;;5054954;28;20075;-79
2024/03/04 12:01:59;;;;;;;41.85;25.38;;;;;;;;;;5047043;28;20068;-79
2024/03/04 12:04:29;;;;;;;42.35;25.80;;;;;;;;;;5048653;28;20034;-80
2024/03/04 12:06:55;;;;;;;45.60;27.58;;;;;;;;;;5054391;28;20040;-79
2024/03/04 12:09:26;;;;;;;39.95;26.02;;;;;;;;;;5057244;28;20052;-79
2024/03/04 12:11:52;;;;;;;46.67;26.83;;;;;;;;;;5056447;28;20103;-79
2024/03/04 12:14:18;;;;;;;39.58;24.50;;;;;;;;;;5054836;28;20020;-80
2024/03/04 12:16:45;;;;;;;41.17;25.10;;;;;;;;;;5064446;28;20028;-79
2024/03/04 12:19:11;;;;;;;36.40;24.40;;;;;;;;;;5044013;28;20070;-80
2024/03/04 12:21:37;;;;;;;38.08;24.60;;;;;;;;;;5044659;28;20547;-79
2024/03/04 12:24:03;;;;;;;37.13;24.55;;;;;;;;;;5043333;28;20029;-79
2024/03/04 12:26:30;;;;;;;38.10;25.77;;;;;;;;;;5048016;28;20045;-79
2024/03/04 12:29:03;;;;;;;42.65;26.35;;;;;;;;;;5050054;28;20094;-79
2024/03/04 12:31:30;;;;;;;46.17;25.67;;;;;;;;;;5052680;28;20040;-80
2024/03/04 12:33:57;;;;;;;43.28;26.67;;;;;;;;;;5046729;28;20037;-80
2024/03/04 12:36:23;;;;;;;45.75;26.77;;;;;;;;;;5052484;28;20074;-80
2024/03/04 12:38:53;;;;;;;40.90;26.17;;;;;;;;;;5048651;28;20028;-79
2024/03/04 12:41:23;;;;;;;39.88;25.00;;;;;;;;;;5054840;28;20043;-80
2024/03/04 12:43:49;;;;;;;40.42;26.17;;;;;;;;;;5036500;28;20048;-80
2024/03/04 12:46:16;;;;;;;45.10;26.75;;;;;;;;;;5050704;28;20402;-79
2024/03/04 12:48:42;;;;;;;41.97;27.48;;;;;;;;;;5041841;28;20028;-79
2024/03/04 12:51:08;;;;;;;40.20;28.42;;;;;;;;;;5052861;28;20120;-80
2024/03/04 12:53:34;;;;;;;43.05;26.70;;;;;;;;;;5051992;28;20029;-80
2024/03/04 12:56:00;;;;;;;43.03;26.10;;;;;;;;;;5050523;28;20024;-81
2024/03/04 12:58:26;;;;;;;43.25;25.83;;;;;;;;;;5047587;28;20025;-79
2024/03/04 13:00:52;;;;;;;42.55;26.10;;;;;;;;;;5052251;28;20033;-81
2024/03/04 13:03:18;;;;;;;41.53;25.38;;;;;;;;;;5049187;28;20033;-80
2024/03/04 13:05:45;;;;;;;37.20;24.88;;;;;;;;;;5057309;28;20033;-80
2024/03/04 13:08:11;;;;;;;41.97;27.52;;;;;;;;;;5052003;28;20029;-78
2024/03/04 13:10:42;;;;;;;46.33;27.40;;;;;;;;;;5056630;28;20021;-83
2024/03/04 13:13:08;;;;;;;41.08;25.55;;;;;;;;;;5046079;28;20495;-83
2024/03/04 13:15:39;;;;;;;39.47;24.83;;;;;;;;;;5053153;28;20559;-82
2024/03/04 13:18:06;;;;;;;41.40;25.80;;;;;;;;;;5051055;28;20048;-83
2024/03/04 13:20:32;;;;;;;37.13;24.98;;;;;;;;;;5050433;28;20029;-83
2024/03/04 13:22:58;;;;;;;39.60;26.45;;;;;;;;;;5046418;28;20045;-81
2024/03/04 13:25:24;;;;;;;38.90;25.27;;;;;;;;;;5052494;28;20055;-81
2024/03/04 13:27:50;;;;;;;38.95;24.48;;;;;;;;;;5042230;28;20479;-80
2024/03/04 13:30:17;;;;;;;47.58;28.95;;;;;;;;;;5056273;28;20103;-82
2024/03/04 13:32:46;;;;;;;42.53;27.70;;;;;;;;;;5051173;28;20029;-82
2024/03/04 13:35:13;;;;;;;39.90;27.42;;;;;;;;;;5047653;28;20028;-82
2024/03/04 13:37:39;;;;;;;40.88;25.75;;;;;;;;;;5052270;28;20059;-82
2024/03/04 13:40:06;;;;;;;40.47;25.23;;;;;;;;;;5057877;28;20558;-82
2024/03/04 13:42:32;;;;;;;42.33;27.45;;;;;;;;;;5047379;28;20137;-81
2024/03/04 13:44:58;;;;;;;40.50;24.80;;;;;;;;;;5058788;28;20139;-82
2024/03/04 13:47:24;;;;;;;41.97;27.23;;;;;;;;;;5045327;28;20053;-82
2024/03/04 13:49:50;;;;;;;45.00;27.30;;;;;;;;;;5050246;28;20032;-82
2024/03/04 13:52:16;;;;;;;37.85;26.35;;;;;;;;;;5050609;28;20025;-81
2024/03/04 13:54:42;;;;;;;39.60;25.27;;;;;;;;;;5045232;28;20029;-81
2024/03/04 13:57:09;;;;;;;44.55;27.77;;;;;;;;;;5045426;28;20048;-81
2024/03/04 13:59:35;;;;;;;42.00;25.15;;;;;;;;;;5055004;28;20028;-82
2024/03/04 14:02:07;;;;;;;37.88;24.60;;;;;;;;;;5049714;28;20080;-82
2024/03/04 14:04:33;;;;;;;40.60;25.88;;;;;;;;;;5048622;28;20024;-82
2024/03/04 14:06:59;;;;;;;36.58;23.67;;;;;;;;;;5054860;28;20041;-81
2024/03/04 14:09:28;;;;;;;36.83;23.63;;;;;;;;;;5061657;28;20109;-81
2024/03/04 14:11:57;;;;;;;40.42;25.67;;;;;;;;;;5053360;28;20179;-82
2024/03/04 14:14:24;;;;;;;36.28;24.48;;;;;;;;;;5056144;28;20474;-82